sensor_id;sensor_type;location;lat;lon;timestamp;P1;durP1;ratioP1;P2;durP2;ratioP2
51438;SDS011;38816;51.142;-0.974;2023-04-28T00:01:58;124.50;;;115.25;;
51438;SDS011;38816;51.142;-0.974;2023-04-28T00:04:23;125.45;;;115.38;;
51438;SDS011;38816;51.142;-0.974;2023-04-28T00:06:49;126.43;;;116.88;;
51438;SDS011;38816;51.142;-0.974;2023-04-28T00:09:15;128.95;;;118.40;;
51438;SDS011;38816;51.142;-0.974;2023-04-28T00:11:40;128.77;;;119.50;;
51438;SDS011;38816;51.142;-0.974;2023-04-28T00:14:08;130.32;;;119.57;;
51438;SDS011;38816;51.142;-0.974;2023-04-28T00:16:34;131.40;;;120.60;;
51438;SDS011;38816;51.142;-0.974;2023-04-28T00:19:00;131.35;;;119.57;;
51438;SDS011;38816;51.142;-0.974;2023-04-28T00:21:25;128.35;;;116.80;;
51438;SDS011;38816;51.142;-0.974;2023-04-28T00:23:52;122.93;;;113.18;;
51438;SDS011;38816;51.142;-0.974;2023-04-28T00:26:18;129.27;;;118.80;;
51438;SDS011;38816;51.142;-0.974;2023-04-28T00:28:43;124.65;;;114.72;;
51438;SDS011;38816;51.142;-0.974;2023-04-28T00:31:12;127.60;;;118.28;;
51438;SDS011;38816;51.142;-0.974;2023-04-28T00:33:39;129.60;;;118.85;;
51438;SDS011;38816;51.142;-0.974;2023-04-28T00:36:05;131.88;;;120.30;;
51438;SDS011;38816;51.142;-0.974;2023-04-28T00:38:31;130.48;;;119.90;;
51438;SDS011;38816;51.142;-0.974;2023-04-28T00:40:56;130.02;;;119.35;;
51438;SDS011;38816;51.142;-0.974;2023-04-28T00:43:21;127.57;;;117.30;;
51438;SDS011;38816;51.142;-0.974;2023-04-28T00:45:48;127.97;;;116.25;;
51438;SDS011;38816;51.142;-0.974;2023-04-28T00:48:14;125.10;;;114.15;;
51438;SDS011;38816;51.142;-0.974;2023-04-28T00:50:39;125.53;;;115.95;;
51438;SDS011;38816;51.142;-0.974;2023-04-28T00:53:05;124.72;;;115.10;;
51438;SDS011;38816;51.142;-0.974;2023-04-28T00:55:31;124.90;;;115.63;;
51438;SDS011;38816;51.142;-0.974;2023-04-28T00:57:59;124.15;;;115.22;;
51438;SDS011;38816;51.142;-0.974;2023-04-28T01:00:24;126.72;;;116.90;;
51438;SDS011;38816;51.142;-0.974;2023-04-28T01:02:50;124.00;;;114.20;;
51438;SDS011;38816;51.142;-0.974;2023-04-28T01:05:16;126.38;;;116.90;;
51438;SDS011;38816;51.142;-0.974;2023-04-28T01:07:42;126.82;;;116.05;;
51438;SDS011;38816;51.142;-0.974;2023-04-28T01:10:07;121.15;;;112.38;;
51438;SDS011;38816;51.142;-0.974;2023-04-28T01:12:33;121.05;;;112.10;;
51438;SDS011;38816;51.142;-0.974;2023-04-28T01:14:59;120.72;;;111.95;;
51438;SDS011;38816;51.142;-0.974;2023-04-28T01:17:24;119.72;;;111.22;;
51438;SDS011;38816;51.142;-0.974;2023-04-28T01:19:50;124.30;;;115.57;;
51438;SDS011;38816;51.142;-0.974;2023-04-28T01:22:16;121.57;;;113.00;;
51438;SDS011;38816;51.142;-0.974;2023-04-28T01:24:42;124.75;;;115.55;;
51438;SDS011;38816;51.142;-0.974;2023-04-28T01:27:07;123.38;;;114.85;;
51438;SDS011;38816;51.142;-0.974;2023-04-28T01:29:33;120.40;;;111.60;;
51438;SDS011;38816;51.142;-0.974;2023-04-28T01:31:58;121.97;;;113.15;;
51438;SDS011;38816;51.142;-0.974;2023-04-28T01:34:23;122.25;;;113.85;;
51438;SDS011;38816;51.142;-0.974;2023-04-28T01:36:49;119.85;;;111.78;;
51438;SDS011;38816;51.142;-0.974;2023-04-28T01:39:14;122.63;;;114.35;;
51438;SDS011;38816;51.142;-0.974;2023-04-28T01:41:40;124.35;;;115.85;;
51438;SDS011;38816;51.142;-0.974;2023-04-28T01:44:06;121.28;;;113.18;;
51438;SDS011;38816;51.142;-0.974;2023-04-28T01:46:31;121.07;;;112.97;;
51438;SDS011;38816;51.142;-0.974;2023-04-28T01:48:57;121.85;;;113.63;;
51438;SDS011;38816;51.142;-0.974;2023-04-28T01:51:23;120.40;;;112.30;;
51438;SDS011;38816;51.142;-0.974;2023-04-28T01:53:48;116.03;;;108.25;;
51438;SDS011;38816;51.142;-0.974;2023-04-28T01:56:14;120.40;;;112.38;;
51438;SDS011;38816;51.142;-0.974;2023-04-28T01:58:39;118.75;;;110.78;;
51438;SDS011;38816;51.142;-0.974;2023-04-28T02:01:05;115.32;;;107.57;;
51438;SDS011;38816;51.142;-0.974;2023-04-28T02:03:30;115.95;;;108.45;;
51438;SDS011;38816;51.142;-0.974;2023-04-28T02:05:56;113.95;;;106.53;;
51438;SDS011;38816;51.142;-0.974;2023-04-28T02:08:21;111.30;;;103.97;;
51438;SDS011;38816;51.142;-0.974;2023-04-28T02:10:47;110.97;;;103.80;;
51438;SDS011;38816;51.142;-0.974;2023-04-28T02:13:12;111.53;;;104.20;;
51438;SDS011;38816;51.142;-0.974;2023-04-28T02:15:38;114.15;;;106.72;;
51438;SDS011;38816;51.142;-0.974;2023-04-28T02:18:07;112.03;;;104.53;;
51438;SDS011;38816;51.142;-0.974;2023-04-28T02:20:33;113.65;;;106.35;;
51438;SDS011;38816;51.142;-0.974;2023-04-28T02:22:58;113.00;;;105.32;;
51438;SDS011;38816;51.142;-0.974;2023-04-28T02:25:23;106.28;;;99.10;;
51438;SDS011;38816;51.142;-0.974;2023-04-28T02:27:49;106.85;;;99.65;;
51438;SDS011;38816;51.142;-0.974;2023-04-28T02:30:14;111.35;;;104.15;;
51438;SDS011;38816;51.142;-0.974;2023-04-28T02:32:40;110.57;;;103.50;;
51438;SDS011;38816;51.142;-0.974;2023-04-28T02:35:05;106.43;;;99.45;;
51438;SDS011;38816;51.142;-0.974;2023-04-28T02:37:31;106.07;;;99.32;;
51438;SDS011;38816;51.142;-0.974;2023-04-28T02:39:56;106.88;;;100.03;;
51438;SDS011;38816;51.142;-0.974;2023-04-28T02:42:22;107.63;;;100.75;;
51438;SDS011;38816;51.142;-0.974;2023-04-28T02:44:47;108.30;;;100.97;;
51438;SDS011;38816;51.142;-0.974;2023-04-28T02:47:13;104.43;;;97.57;;
51438;SDS011;38816;51.142;-0.974;2023-04-28T02:49:38;107.28;;;100.40;;
51438;SDS011;38816;51.142;-0.974;2023-04-28T02:52:03;107.90;;;101.03;;
51438;SDS011;38816;51.142;-0.974;2023-04-28T02:54:29;110.30;;;103.20;;
51438;SDS011;38816;51.142;-0.974;2023-04-28T02:56:55;101.07;;;94.43;;
51438;SDS011;38816;51.142;-0.974;2023-04-28T02:59:22;105.00;;;98.13;;
51438;SDS011;38816;51.142;-0.974;2023-04-28T03:01:48;107.15;;;100.15;;
51438;SDS011;38816;51.142;-0.974;2023-04-28T03:04:14;105.72;;;98.88;;
51438;SDS011;38816;51.142;-0.974;2023-04-28T03:06:40;102.43;;;95.45;;
51438;SDS011;38816;51.142;-0.974;2023-04-28T03:09:06;105.28;;;98.47;;
51438;SDS011;38816;51.142;-0.974;2023-04-28T03:11:32;103.93;;;97.00;;
51438;SDS011;38816;51.142;-0.974;2023-04-28T03:13:57;101.63;;;94.97;;
51438;SDS011;38816;51.142;-0.974;2023-04-28T03:16:22;100.40;;;93.93;;
51438;SDS011;38816;51.142;-0.974;2023-04-28T03:18:48;103.20;;;96.53;;
51438;SDS011;38816;51.142;-0.974;2023-04-28T03:21:13;102.75;;;96.05;;
51438;SDS011;38816;51.142;-0.974;2023-04-28T03:23:39;104.60;;;97.90;;
51438;SDS011;38816;51.142;-0.974;2023-04-28T03:26:04;99.28;;;92.82;;
51438;SDS011;38816;51.142;-0.974;2023-04-28T03:28:30;101.18;;;93.82;;
51438;SDS011;38816;51.142;-0.974;2023-04-28T03:30:55;100.93;;;94.45;;
51438;SDS011;38816;51.142;-0.974;2023-04-28T03:33:21;101.90;;;95.35;;
51438;SDS011;38816;51.142;-0.974;2023-04-28T03:35:46;99.22;;;92.82;;
51438;SDS011;38816;51.142;-0.974;2023-04-28T03:38:12;104.45;;;97.65;;
51438;SDS011;38816;51.142;-0.974;2023-04-28T03:40:37;99.47;;;93.00;;
51438;SDS011;38816;51.142;-0.974;2023-04-28T03:43:02;97.57;;;91.28;;
51438;SDS011;38816;51.142;-0.974;2023-04-28T03:45:28;97.28;;;90.75;;
51438;SDS011;38816;51.142;-0.974;2023-04-28T03:47:53;99.38;;;92.68;;
51438;SDS011;38816;51.142;-0.974;2023-04-28T03:50:19;100.20;;;93.70;;
51438;SDS011;38816;51.142;-0.974;2023-04-28T03:52:44;103.20;;;96.20;;
51438;SDS011;38816;51.142;-0.974;2023-04-28T03:55:09;102.03;;;95.43;;
51438;SDS011;38816;51.142;-0.974;2023-04-28T03:57:35;101.60;;;94.90;;
51438;SDS011;38816;51.142;-0.974;2023-04-28T04:00:00;99.13;;;92.75;;
51438;SDS011;38816;51.142;-0.974;2023-04-28T04:02:26;102.40;;;95.70;;
51438;SDS011;38816;51.142;-0.974;2023-04-28T04:04:51;101.72;;;95.13;;
51438;SDS011;38816;51.142;-0.974;2023-04-28T04:07:17;102.78;;;96.07;;
51438;SDS011;38816;51.142;-0.974;2023-04-28T04:09:42;101.55;;;94.65;;
51438;SDS011;38816;51.142;-0.974;2023-04-28T04:12:08;104.22;;;96.97;;
51438;SDS011;38816;51.142;-0.974;2023-04-28T04:14:33;100.22;;;93.55;;
51438;SDS011;38816;51.142;-0.974;2023-04-28T04:16:58;97.90;;;91.15;;
51438;SDS011;38816;51.142;-0.974;2023-04-28T04:19:24;97.97;;;91.57;;
51438;SDS011;38816;51.142;-0.974;2023-04-28T04:21:50;100.38;;;93.60;;
51438;SDS011;38816;51.142;-0.974;2023-04-28T04:24:16;98.63;;;92.00;;
51438;SDS011;38816;51.142;-0.974;2023-04-28T04:26:42;96.95;;;90.50;;
51438;SDS011;38816;51.142;-0.974;2023-04-28T04:29:07;101.57;;;95.03;;
51438;SDS011;38816;51.142;-0.974;2023-04-28T04:31:32;94.32;;;88.25;;
51438;SDS011;38816;51.142;-0.974;2023-04-28T04:33:58;96.68;;;90.30;;
51438;SDS011;38816;51.142;-0.974;2023-04-28T04:36:23;98.88;;;92.47;;
51438;SDS011;38816;51.142;-0.974;2023-04-28T04:38:49;101.60;;;93.03;;
51438;SDS011;38816;51.142;-0.974;2023-04-28T04:41:14;96.55;;;90.13;;
51438;SDS011;38816;51.142;-0.974;2023-04-28T04:43:40;98.90;;;92.30;;
51438;SDS011;38816;51.142;-0.974;2023-04-28T04:46:05;96.25;;;89.90;;
51438;SDS011;38816;51.142;-0.974;2023-04-28T04:48:31;94.75;;;88.13;;
51438;SDS011;38816;51.142;-0.974;2023-04-28T04:50:56;90.38;;;84.47;;
51438;SDS011;38816;51.142;-0.974;2023-04-28T04:53:22;96.25;;;90.00;;
51438;SDS011;38816;51.142;-0.974;2023-04-28T04:55:47;90.97;;;84.95;;
51438;SDS011;38816;51.142;-0.974;2023-04-28T04:58:12;94.82;;;88.72;;
51438;SDS011;38816;51.142;-0.974;2023-04-28T05:00:38;94.60;;;88.40;;
51438;SDS011;38816;51.142;-0.974;2023-04-28T05:03:03;94.63;;;88.53;;
51438;SDS011;38816;51.142;-0.974;2023-04-28T05:05:30;96.40;;;90.20;;
51438;SDS011;38816;51.142;-0.974;2023-04-28T05:07:56;97.70;;;91.22;;
51438;SDS011;38816;51.142;-0.974;2023-04-28T05:10:22;99.30;;;92.47;;
51438;SDS011;38816;51.142;-0.974;2023-04-28T05:12:48;93.75;;;87.47;;
51438;SDS011;38816;51.142;-0.974;2023-04-28T05:15:14;97.80;;;89.45;;
51438;SDS011;38816;51.142;-0.974;2023-04-28T05:17:40;93.78;;;86.50;;
51438;SDS011;38816;51.142;-0.974;2023-04-28T05:20:05;95.50;;;88.85;;
51438;SDS011;38816;51.142;-0.974;2023-04-28T05:22:31;88.85;;;82.85;;
51438;SDS011;38816;51.142;-0.974;2023-04-28T05:24:57;89.25;;;83.47;;
51438;SDS011;38816;51.142;-0.974;2023-04-28T05:27:22;89.40;;;83.40;;
51438;SDS011;38816;51.142;-0.974;2023-04-28T05:29:47;86.97;;;81.18;;
51438;SDS011;38816;51.142;-0.974;2023-04-28T05:32:13;86.68;;;81.05;;
51438;SDS011;38816;51.142;-0.974;2023-04-28T05:34:38;86.60;;;80.95;;
51438;SDS011;38816;51.142;-0.974;2023-04-28T05:37:03;83.07;;;77.68;;
51438;SDS011;38816;51.142;-0.974;2023-04-28T05:39:29;83.60;;;77.88;;
51438;SDS011;38816;51.142;-0.974;2023-04-28T05:41:54;82.88;;;77.38;;
51438;SDS011;38816;51.142;-0.974;2023-04-28T05:44:20;88.55;;;82.55;;
51438;SDS011;38816;51.142;-0.974;2023-04-28T05:46:45;83.40;;;77.97;;
51438;SDS011;38816;51.142;-0.974;2023-04-28T05:49:11;84.38;;;78.35;;
51438;SDS011;38816;51.142;-0.974;2023-04-28T05:51:36;83.78;;;78.32;;
51438;SDS011;38816;51.142;-0.974;2023-04-28T05:54:02;87.53;;;81.35;;
51438;SDS011;38816;51.142;-0.974;2023-04-28T05:56:28;86.72;;;80.85;;
51438;SDS011;38816;51.142;-0.974;2023-04-28T05:58:53;90.97;;;81.60;;
51438;SDS011;38816;51.142;-0.974;2023-04-28T06:01:19;87.10;;;80.07;;
51438;SDS011;38816;51.142;-0.974;2023-04-28T06:03:44;86.65;;;80.75;;
51438;SDS011;38816;51.142;-0.974;2023-04-28T06:06:10;91.28;;;85.35;;
51438;SDS011;38816;51.142;-0.974;2023-04-28T06:08:36;89.47;;;83.70;;
51438;SDS011;38816;51.142;-0.974;2023-04-28T06:11:04;119.88;;;79.72;;
51438;SDS011;38816;51.142;-0.974;2023-04-28T06:13:31;85.45;;;79.75;;
51438;SDS011;38816;51.142;-0.974;2023-04-28T06:15:56;86.63;;;80.93;;
51438;SDS011;38816;51.142;-0.974;2023-04-28T06:18:22;86.53;;;80.90;;
51438;SDS011;38816;51.142;-0.974;2023-04-28T06:20:48;82.80;;;77.18;;
51438;SDS011;38816;51.142;-0.974;2023-04-28T06:23:13;85.10;;;79.50;;
51438;SDS011;38816;51.142;-0.974;2023-04-28T06:25:39;87.65;;;82.05;;
51438;SDS011;38816;51.142;-0.974;2023-04-28T06:28:05;89.22;;;83.50;;
51438;SDS011;38816;51.142;-0.974;2023-04-28T06:30:31;86.90;;;81.28;;
51438;SDS011;38816;51.142;-0.974;2023-04-28T06:32:58;83.63;;;78.18;;
51438;SDS011;38816;51.142;-0.974;2023-04-28T06:35:23;82.88;;;77.38;;
51438;SDS011;38816;51.142;-0.974;2023-04-28T06:37:49;82.57;;;77.13;;
51438;SDS011;38816;51.142;-0.974;2023-04-28T06:40:14;77.60;;;72.55;;
51438;SDS011;38816;51.142;-0.974;2023-04-28T06:42:40;77.60;;;72.60;;
51438;SDS011;38816;51.142;-0.974;2023-04-28T06:45:05;80.03;;;74.63;;
51438;SDS011;38816;51.142;-0.974;2023-04-28T06:47:31;79.28;;;74.07;;
51438;SDS011;38816;51.142;-0.974;2023-04-28T06:49:57;79.43;;;74.30;;
51438;SDS011;38816;51.142;-0.974;2023-04-28T06:52:23;72.88;;;68.18;;
51438;SDS011;38816;51.142;-0.974;2023-04-28T06:54:48;77.05;;;72.13;;
51438;SDS011;38816;51.142;-0.974;2023-04-28T06:57:14;71.53;;;66.93;;
51438;SDS011;38816;51.142;-0.974;2023-04-28T06:59:40;71.20;;;66.38;;
51438;SDS011;38816;51.142;-0.974;2023-04-28T07:02:08;72.70;;;68.00;;
51438;SDS011;38816;51.142;-0.974;2023-04-28T07:04:33;70.13;;;65.57;;
51438;SDS011;38816;51.142;-0.974;2023-04-28T07:06:59;71.75;;;66.95;;
51438;SDS011;38816;51.142;-0.974;2023-04-28T07:09:24;70.53;;;65.82;;
51438;SDS011;38816;51.142;-0.974;2023-04-28T07:11:49;69.68;;;65.20;;
51438;SDS011;38816;51.142;-0.974;2023-04-28T07:14:15;67.50;;;63.08;;
51438;SDS011;38816;51.142;-0.974;2023-04-28T07:16:40;66.75;;;62.28;;
51438;SDS011;38816;51.142;-0.974;2023-04-28T07:19:06;60.42;;;56.40;;
51438;SDS011;38816;51.142;-0.974;2023-04-28T07:21:31;62.03;;;57.92;;
51438;SDS011;38816;51.142;-0.974;2023-04-28T07:23:58;58.90;;;55.05;;
51438;SDS011;38816;51.142;-0.974;2023-04-28T07:26:23;53.65;;;50.15;;
51438;SDS011;38816;51.142;-0.974;2023-04-28T07:28:49;50.80;;;47.50;;
51438;SDS011;38816;51.142;-0.974;2023-04-28T07:31:15;52.38;;;48.95;;
51438;SDS011;38816;51.142;-0.974;2023-04-28T07:33:40;47.88;;;44.78;;
51438;SDS011;38816;51.142;-0.974;2023-04-28T07:36:06;51.10;;;47.78;;
51438;SDS011;38816;51.142;-0.974;2023-04-28T07:38:34;42.35;;;39.55;;
51438;SDS011;38816;51.142;-0.974;2023-04-28T07:41:01;36.28;;;33.75;;
51438;SDS011;38816;51.142;-0.974;2023-04-28T07:43:28;33.33;;;31.13;;
51438;SDS011;38816;51.142;-0.974;2023-04-28T07:45:53;33.97;;;31.75;;
51438;SDS011;38816;51.142;-0.974;2023-04-28T07:48:19;32.08;;;29.65;;
51438;SDS011;38816;51.142;-0.974;2023-04-28T07:50:44;29.90;;;27.92;;
51438;SDS011;38816;51.142;-0.974;2023-04-28T07:53:10;32.28;;;30.10;;
51438;SDS011;38816;51.142;-0.974;2023-04-28T07:55:36;30.77;;;28.77;;
51438;SDS011;38816;51.142;-0.974;2023-04-28T07:58:01;21.92;;;20.30;;
51438;SDS011;38816;51.142;-0.974;2023-04-28T08:00:27;19.13;;;17.70;;
51438;SDS011;38816;51.142;-0.974;2023-04-28T08:02:52;18.05;;;16.85;;
51438;SDS011;38816;51.142;-0.974;2023-04-28T08:05:18;16.08;;;14.88;;
51438;SDS011;38816;51.142;-0.974;2023-04-28T08:07:43;13.05;;;12.25;;
51438;SDS011;38816;51.142;-0.974;2023-04-28T08:10:09;12.73;;;11.90;;
51438;SDS011;38816;51.142;-0.974;2023-04-28T08:12:35;13.32;;;12.48;;
51438;SDS011;38816;51.142;-0.974;2023-04-28T08:15:01;15.95;;;14.95;;
51438;SDS011;38816;51.142;-0.974;2023-04-28T08:17:27;13.00;;;12.20;;
51438;SDS011;38816;51.142;-0.974;2023-04-28T08:19:53;10.35;;;9.40;;
51438;SDS011;38816;51.142;-0.974;2023-04-28T08:22:18;10.27;;;9.52;;
51438;SDS011;38816;51.142;-0.974;2023-04-28T08:24:44;11.07;;;10.38;;
51438;SDS011;38816;51.142;-0.974;2023-04-28T08:27:09;5.85;;;5.45;;
51438;SDS011;38816;51.142;-0.974;2023-04-28T08:29:35;5.82;;;5.43;;
51438;SDS011;38816;51.142;-0.974;2023-04-28T08:32:00;5.18;;;4.88;;
51438;SDS011;38816;51.142;-0.974;2023-04-28T08:34:26;4.78;;;4.47;;
51438;SDS011;38816;51.142;-0.974;2023-04-28T08:36:52;5.00;;;4.70;;
51438;SDS011;38816;51.142;-0.974;2023-04-28T08:39:17;4.07;;;3.78;;
51438;SDS011;38816;51.142;-0.974;2023-04-28T08:41:44;3.83;;;3.63;;
51438;SDS011;38816;51.142;-0.974;2023-04-28T08:44:10;3.88;;;3.60;;
51438;SDS011;38816;51.142;-0.974;2023-04-28T08:46:39;5.28;;;4.97;;
51438;SDS011;38816;51.142;-0.974;2023-04-28T08:49:11;4.18;;;3.97;;
51438;SDS011;38816;51.142;-0.974;2023-04-28T08:51:43;4.20;;;3.90;;
51438;SDS011;38816;51.142;-0.974;2023-04-28T08:54:15;4.63;;;4.32;;
51438;SDS011;38816;51.142;-0.974;2023-04-28T08:56:41;3.90;;;3.60;;
51438;SDS011;38816;51.142;-0.974;2023-04-28T08:59:10;4.07;;;3.67;;
51438;SDS011;38816;51.142;-0.974;2023-04-28T09:01:37;3.45;;;3.25;;
51438;SDS011;38816;51.142;-0.974;2023-04-28T09:04:03;3.53;;;3.22;;
51438;SDS011;38816;51.142;-0.974;2023-04-28T09:06:35;2.70;;;2.50;;
51438;SDS011;38816;51.142;-0.974;2023-04-28T09:11:51;2.65;;;2.55;;
51438;SDS011;38816;51.142;-0.974;2023-04-28T09:14:21;3.00;;;2.83;;
51438;SDS011;38816;51.142;-0.974;2023-04-28T09:16:47;3.00;;;2.80;;
51438;SDS011;38816;51.142;-0.974;2023-04-28T09:19:13;2.60;;;2.40;;
51438;SDS011;38816;51.142;-0.974;2023-04-28T09:24:25;2.85;;;2.67;;
51438;SDS011;38816;51.142;-0.974;2023-04-28T09:26:51;2.92;;;2.72;;
51438;SDS011;38816;51.142;-0.974;2023-04-28T09:29:17;2.60;;;2.50;;
51438;SDS011;38816;51.142;-0.974;2023-04-28T09:31:42;3.15;;;2.63;;
51438;SDS011;38816;51.142;-0.974;2023-04-28T09:34:08;2.53;;;2.42;;
51438;SDS011;38816;51.142;-0.974;2023-04-28T09:36:33;2.38;;;2.28;;
51438;SDS011;38816;51.142;-0.974;2023-04-28T09:38:59;2.42;;;2.33;;
51438;SDS011;38816;51.142;-0.974;2023-04-28T09:41:35;3.40;;;2.40;;
51438;SDS011;38816;51.142;-0.974;2023-04-28T09:46:35;2.42;;;2.22;;
51438;SDS011;38816;51.142;-0.974;2023-04-28T09:49:02;3.75;;;2.40;;
51438;SDS011;38816;51.142;-0.974;2023-04-28T09:51:27;2.80;;;2.47;;
51438;SDS011;38816;51.142;-0.974;2023-04-28T09:53:53;3.53;;;2.60;;
51438;SDS011;38816;51.142;-0.974;2023-04-28T09:56:23;3.58;;;2.78;;
51438;SDS011;38816;51.142;-0.974;2023-04-28T09:58:51;2.53;;;2.33;;
51438;SDS011;38816;51.142;-0.974;2023-04-28T10:01:18;2.92;;;2.60;;
51438;SDS011;38816;51.142;-0.974;2023-04-28T10:03:43;2.80;;;2.60;;
51438;SDS011;38816;51.142;-0.974;2023-04-28T10:06:10;2.83;;;2.55;;
51438;SDS011;38816;51.142;-0.974;2023-04-28T10:08:35;2.63;;;2.42;;
51438;SDS011;38816;51.142;-0.974;2023-04-28T10:11:01;2.60;;;2.40;;
51438;SDS011;38816;51.142;-0.974;2023-04-28T10:13:27;3.10;;;2.90;;
51438;SDS011;38816;51.142;-0.974;2023-04-28T10:15:53;2.78;;;2.58;;
51438;SDS011;38816;51.142;-0.974;2023-04-28T10:18:19;3.88;;;2.50;;
51438;SDS011;38816;51.142;-0.974;2023-04-28T10:20:48;2.95;;;2.75;;
51438;SDS011;38816;51.142;-0.974;2023-04-28T10:26:20;2.88;;;2.53;;
51438;SDS011;38816;51.142;-0.974;2023-04-28T10:28:57;2.97;;;2.70;;
51438;SDS011;38816;51.142;-0.974;2023-04-28T10:31:22;3.25;;;3.05;;
51438;SDS011;38816;51.142;-0.974;2023-04-28T10:33:48;3.90;;;3.60;;
51438;SDS011;38816;51.142;-0.974;2023-04-28T10:39:10;3.13;;;2.92;;
51438;SDS011;38816;51.142;-0.974;2023-04-28T10:41:36;4.07;;;3.78;;
51438;SDS011;38816;51.142;-0.974;2023-04-28T10:44:39;8.73;;;5.43;;
51438;SDS011;38816;51.142;-0.974;2023-04-28T10:47:03;5.75;;;5.25;;
51438;SDS011;38816;51.142;-0.974;2023-04-28T11:00:44;9.50;;;8.70;;
51438;SDS011;38816;51.142;-0.974;2023-04-28T11:08:59;11.73;;;10.95;;
51438;SDS011;38816;51.142;-0.974;2023-04-28T11:11:30;15.38;;;14.38;;
51438;SDS011;38816;51.142;-0.974;2023-04-28T11:16:52;15.75;;;14.65;;
51438;SDS011;38816;51.142;-0.974;2023-04-28T11:19:28;16.90;;;15.70;;
51438;SDS011;38816;51.142;-0.974;2023-04-28T11:21:56;18.55;;;17.35;;
51438;SDS011;38816;51.142;-0.974;2023-04-28T11:24:23;19.42;;;18.13;;
51438;SDS011;38816;51.142;-0.974;2023-04-28T11:26:55;19.07;;;17.43;;
51438;SDS011;38816;51.142;-0.974;2023-04-28T11:29:31;17.65;;;16.45;;
51438;SDS011;38816;51.142;-0.974;2023-04-28T11:32:01;13.43;;;12.55;;
51438;SDS011;38816;51.142;-0.974;2023-04-28T11:34:28;12.73;;;11.82;;
51438;SDS011;38816;51.142;-0.974;2023-04-28T11:36:53;12.18;;;11.38;;
51438;SDS011;38816;51.142;-0.974;2023-04-28T11:39:29;13.18;;;11.95;;
51438;SDS011;38816;51.142;-0.974;2023-04-28T11:41:55;12.10;;;11.20;;
51438;SDS011;38816;51.142;-0.974;2023-04-28T11:44:22;12.75;;;11.75;;
51438;SDS011;38816;51.142;-0.974;2023-04-28T11:46:53;14.70;;;13.50;;
51438;SDS011;38816;51.142;-0.974;2023-04-28T11:49:26;18.75;;;17.25;;
51438;SDS011;38816;51.142;-0.974;2023-04-28T11:52:13;18.17;;;16.98;;
51438;SDS011;38816;51.142;-0.974;2023-04-28T11:54:39;20.83;;;19.23;;
51438;SDS011;38816;51.142;-0.974;2023-04-28T11:57:08;20.73;;;19.40;;
51438;SDS011;38816;51.142;-0.974;2023-04-28T11:59:41;19.50;;;18.15;;
51438;SDS011;38816;51.142;-0.974;2023-04-28T12:02:07;23.55;;;21.85;;
51438;SDS011;38816;51.142;-0.974;2023-04-28T12:09:34;21.88;;;20.40;;
51438;SDS011;38816;51.142;-0.974;2023-04-28T12:12:01;22.73;;;21.02;;
51438;SDS011;38816;51.142;-0.974;2023-04-28T12:14:31;27.25;;;25.40;;
51438;SDS011;38816;51.142;-0.974;2023-04-28T12:17:23;23.40;;;21.60;;
51438;SDS011;38816;51.142;-0.974;2023-04-28T12:19:49;22.85;;;21.25;;
51438;SDS011;38816;51.142;-0.974;2023-04-28T12:22:14;25.70;;;23.70;;
51438;SDS011;38816;51.142;-0.974;2023-04-28T12:24:41;25.48;;;23.77;;
51438;SDS011;38816;51.142;-0.974;2023-04-28T12:27:17;25.83;;;24.13;;
51438;SDS011;38816;51.142;-0.974;2023-04-28T12:29:45;27.48;;;25.58;;
51438;SDS011;38816;51.142;-0.974;2023-04-28T12:32:12;25.23;;;23.52;;
51438;SDS011;38816;51.142;-0.974;2023-04-28T12:34:38;27.85;;;25.95;;
51438;SDS011;38816;51.142;-0.974;2023-04-28T12:37:05;29.65;;;27.65;;
51438;SDS011;38816;51.142;-0.974;2023-04-28T12:39:31;29.42;;;27.52;;
51438;SDS011;38816;51.142;-0.974;2023-04-28T12:41:57;29.63;;;27.67;;
51438;SDS011;38816;51.142;-0.974;2023-04-28T12:44:24;30.17;;;28.05;;
51438;SDS011;38816;51.142;-0.974;2023-04-28T12:46:52;30.08;;;27.90;;
51438;SDS011;38816;51.142;-0.974;2023-04-28T12:49:17;30.50;;;28.52;;
51438;SDS011;38816;51.142;-0.974;2023-04-28T12:51:43;29.45;;;27.48;;
51438;SDS011;38816;51.142;-0.974;2023-04-28T12:54:09;28.80;;;26.90;;
51438;SDS011;38816;51.142;-0.974;2023-04-28T12:56:34;31.58;;;29.48;;
51438;SDS011;38816;51.142;-0.974;2023-04-28T12:59:00;32.25;;;30.02;;
51438;SDS011;38816;51.142;-0.974;2023-04-28T13:01:28;30.25;;;28.27;;
51438;SDS011;38816;51.142;-0.974;2023-04-28T13:03:54;32.70;;;30.50;;
51438;SDS011;38816;51.142;-0.974;2023-04-28T13:06:20;30.63;;;28.63;;
51438;SDS011;38816;51.142;-0.974;2023-04-28T13:08:45;35.47;;;33.13;;
51438;SDS011;38816;51.142;-0.974;2023-04-28T13:11:11;36.13;;;33.80;;
51438;SDS011;38816;51.142;-0.974;2023-04-28T13:13:36;35.90;;;33.40;;
51438;SDS011;38816;51.142;-0.974;2023-04-28T13:16:02;34.90;;;32.60;;
51438;SDS011;38816;51.142;-0.974;2023-04-28T13:18:29;34.70;;;32.45;;
51438;SDS011;38816;51.142;-0.974;2023-04-28T13:20:54;32.70;;;30.60;;
51438;SDS011;38816;51.142;-0.974;2023-04-28T13:23:20;35.63;;;33.22;;
51438;SDS011;38816;51.142;-0.974;2023-04-28T13:25:46;33.03;;;30.92;;
51438;SDS011;38816;51.142;-0.974;2023-04-28T13:28:11;35.00;;;32.55;;
51438;SDS011;38816;51.142;-0.974;2023-04-28T13:30:38;36.50;;;34.05;;
51438;SDS011;38816;51.142;-0.974;2023-04-28T13:33:03;36.50;;;33.90;;
51438;SDS011;38816;51.142;-0.974;2023-04-28T13:35:29;37.67;;;35.08;;
51438;SDS011;38816;51.142;-0.974;2023-04-28T13:37:54;38.78;;;35.92;;
51438;SDS011;38816;51.142;-0.974;2023-04-28T13:40:25;36.25;;;33.90;;
51438;SDS011;38816;51.142;-0.974;2023-04-28T13:42:51;37.08;;;34.47;;
51438;SDS011;38816;51.142;-0.974;2023-04-28T13:45:16;36.50;;;33.95;;
51438;SDS011;38816;51.142;-0.974;2023-04-28T13:47:42;38.08;;;35.60;;
51438;SDS011;38816;51.142;-0.974;2023-04-28T13:50:07;36.17;;;33.80;;
51438;SDS011;38816;51.142;-0.974;2023-04-28T13:52:33;36.53;;;34.13;;
51438;SDS011;38816;51.142;-0.974;2023-04-28T13:54:58;37.17;;;34.72;;
51438;SDS011;38816;51.142;-0.974;2023-04-28T13:57:23;38.38;;;35.78;;
51438;SDS011;38816;51.142;-0.974;2023-04-28T13:59:49;38.40;;;35.70;;
51438;SDS011;38816;51.142;-0.974;2023-04-28T14:02:14;40.13;;;37.55;;
51438;SDS011;38816;51.142;-0.974;2023-04-28T14:04:40;38.67;;;36.00;;
51438;SDS011;38816;51.142;-0.974;2023-04-28T14:07:11;35.40;;;33.13;;
51438;SDS011;38816;51.142;-0.974;2023-04-28T14:09:37;39.33;;;36.63;;
51438;SDS011;38816;51.142;-0.974;2023-04-28T14:12:04;39.47;;;36.88;;
51438;SDS011;38816;51.142;-0.974;2023-04-28T14:14:30;38.15;;;35.58;;
51438;SDS011;38816;51.142;-0.974;2023-04-28T14:16:55;36.88;;;34.22;;
51438;SDS011;38816;51.142;-0.974;2023-04-28T14:19:21;39.58;;;36.90;;
51438;SDS011;38816;51.142;-0.974;2023-04-28T14:21:46;38.13;;;35.63;;
51438;SDS011;38816;51.142;-0.974;2023-04-28T14:24:11;39.20;;;36.70;;
51438;SDS011;38816;51.142;-0.974;2023-04-28T14:26:37;41.65;;;38.95;;
51438;SDS011;38816;51.142;-0.974;2023-04-28T14:29:02;40.17;;;37.60;;
51438;SDS011;38816;51.142;-0.974;2023-04-28T14:31:29;42.13;;;39.33;;
51438;SDS011;38816;51.142;-0.974;2023-04-28T14:33:55;38.85;;;36.15;;
51438;SDS011;38816;51.142;-0.974;2023-04-28T14:36:20;42.85;;;39.85;;
51438;SDS011;38816;51.142;-0.974;2023-04-28T14:38:46;42.50;;;39.78;;
51438;SDS011;38816;51.142;-0.974;2023-04-28T14:41:11;41.00;;;38.20;;